createdAt,value
2023-04-05T00:00:44.142Z,1.45
2023-04-05T00:03:11.645Z,2.75
2023-04-05T00:05:39.268Z,1.38
2023-04-05T00:08:13.188Z,2.15
2023-04-05T00:10:41.063Z,0.98
2023-04-05T00:13:08.716Z,0.80
2023-04-05T00:15:36.324Z,1.13
2023-04-05T00:18:04.081Z,1.17
2023-04-05T00:20:31.896Z,1.80
2023-04-05T00:22:59.530Z,4.07
2023-04-05T00:25:26.638Z,1.25
2023-04-05T00:27:53.740Z,1.48
2023-04-05T00:30:21.048Z,4.72
2023-04-05T00:32:49.925Z,1.58
2023-04-05T00:35:17.966Z,1.40
2023-04-05T00:37:45.429Z,5.47
2023-04-05T00:40:12.892Z,1.90
2023-04-05T00:42:43.596Z,1.50
2023-04-05T00:45:11.362Z,3.63
2023-04-05T00:47:39.130Z,6.13
2023-04-05T00:50:07.369Z,2.35
2023-04-05T00:52:34.936Z,4.68
2023-04-05T00:55:02.178Z,0.82
2023-04-05T00:57:31.922Z,6.70
2023-04-05T01:00:00.103Z,11.80
2023-04-05T01:02:36.761Z,5.70
2023-04-05T01:05:08.174Z,2.67
2023-04-05T01:07:41.939Z,2.45
2023-04-05T01:10:10.488Z,3.38
2023-04-05T01:12:38.177Z,1.63
2023-04-05T01:15:08.798Z,3.67
2023-04-05T01:17:41.152Z,4.72
2023-04-05T01:20:12.792Z,5.45
2023-04-05T01:23:04.723Z,2.08
2023-04-05T01:26:03.439Z,3.22
2023-04-05T01:28:50.638Z,4.82
2023-04-05T01:31:32.978Z,6.25
2023-04-05T01:34:23.273Z,5.05
2023-04-05T01:37:02.025Z,2.92
2023-04-05T01:39:29.568Z,12.35
2023-04-05T01:42:01.000Z,6.00
2023-04-05T01:44:28.818Z,10.35
2023-04-05T01:46:56.409Z,7.45
2023-04-05T01:49:24.740Z,10.60
2023-04-05T01:51:52.199Z,10.30
2023-04-05T01:54:19.481Z,3.95
2023-04-05T01:56:46.642Z,9.38
2023-04-05T01:59:14.123Z,9.05
2023-04-05T02:01:41.127Z,9.13
2023-04-05T02:04:12.938Z,5.57
2023-04-05T02:06:42.416Z,6.57
2023-04-05T02:09:10.359Z,7.78
2023-04-05T02:11:37.492Z,7.55
2023-04-05T02:14:04.841Z,4.82
2023-04-05T02:16:35.259Z,11.70
2023-04-05T02:19:02.384Z,13.45
2023-04-05T02:21:31.607Z,5.72
2023-04-05T02:23:59.492Z,4.60
2023-04-05T02:26:26.960Z,3.95
2023-04-05T02:28:54.357Z,4.18
2023-04-05T02:31:21.852Z,10.02
2023-04-05T02:33:49.514Z,10.85
2023-04-05T02:36:16.935Z,4.32
2023-04-05T02:38:45.838Z,4.30
2023-04-05T02:41:13.436Z,8.15
2023-04-05T02:43:40.855Z,8.60
2023-04-05T02:46:08.425Z,7.40
2023-04-05T02:48:40.312Z,6.30
2023-04-05T02:51:16.262Z,6.25
2023-04-05T02:53:44.720Z,4.00
2023-04-05T02:56:14.867Z,7.03
2023-04-05T02:58:49.341Z,1.90
2023-04-05T03:01:22.809Z,11.05
2023-04-05T03:03:50.737Z,6.50
2023-04-05T03:06:18.271Z,3.42
2023-04-05T03:08:51.346Z,9.70
2023-04-05T03:11:25.343Z,4.90
2023-04-05T03:13:57.299Z,6.80
2023-04-05T03:16:42.098Z,6.53
2023-04-05T03:19:22.318Z,6.82
2023-04-05T03:21:53.015Z,2.58
2023-04-05T03:24:29.032Z,6.50
2023-04-05T03:27:03.980Z,4.75
2023-04-05T03:29:35.858Z,3.15
2023-04-05T03:32:13.610Z,2.42
2023-04-05T03:34:47.968Z,4.43
2023-04-05T03:37:17.080Z,5.53
2023-04-05T03:39:49.973Z,5.22
2023-04-05T03:42:19.878Z,5.10
2023-04-05T03:44:50.444Z,7.30
2023-04-05T03:47:18.114Z,6.57
2023-04-05T03:49:46.421Z,1.67
2023-04-05T03:52:13.449Z,5.38
2023-04-05T03:54:45.534Z,9.60
2023-04-05T03:57:15.880Z,6.07
2023-04-05T03:59:46.014Z,0.82
2023-04-05T04:02:14.394Z,8.43
2023-04-05T04:04:41.995Z,3.67
2023-04-05T04:07:09.508Z,6.05
2023-04-05T04:09:37.022Z,2.85
2023-04-05T04:12:12.255Z,9.85
2023-04-05T04:14:48.374Z,4.60
2023-04-05T04:17:47.927Z,7.30
2023-04-05T04:20:37.641Z,5.78
2023-04-05T04:23:24.756Z,4.72
2023-04-05T04:26:30.472Z,4.28
2023-04-05T04:29:15.909Z,4.15
2023-04-05T04:32:06.594Z,5.68
2023-04-05T04:35:00.132Z,9.93
2023-04-05T04:37:59.568Z,1.08
2023-04-05T04:40:43.735Z,5.25
2023-04-05T04:43:42.542Z,3.67
2023-04-05T04:46:42.757Z,3.33
2023-04-05T04:49:31.634Z,2.40
2023-04-05T04:51:59.346Z,2.08
2023-04-05T04:54:27.754Z,1.73
2023-04-05T04:56:54.831Z,4.57
2023-04-05T04:59:22.242Z,2.17
2023-04-05T05:01:49.584Z,3.75
2023-04-05T05:04:16.840Z,3.90
2023-04-05T05:06:45.530Z,10.40
2023-04-05T05:09:12.905Z,3.90
2023-04-05T05:11:48.056Z,7.78
2023-04-05T05:14:15.522Z,3.20
2023-04-05T05:16:42.994Z,3.55
2023-04-05T05:19:10.213Z,2.95
2023-04-05T05:24:10.601Z,4.13
2023-04-05T05:26:37.798Z,3.00
2023-04-05T05:29:04.906Z,10.80
2023-04-05T05:31:36.230Z,5.70
2023-04-05T05:34:03.694Z,10.05
2023-04-05T05:36:31.159Z,5.25
2023-04-05T05:38:58.279Z,6.95
2023-04-05T05:41:25.487Z,4.57
2023-04-05T05:43:53.431Z,4.68
2023-04-05T05:46:21.321Z,2.97
2023-04-05T05:48:48.769Z,12.88
2023-04-05T05:51:16.886Z,5.47
2023-04-05T05:53:44.475Z,5.72
2023-04-05T05:56:12.411Z,3.67
2023-04-05T05:58:40.187Z,6.53
2023-04-05T06:01:12.068Z,4.80
2023-04-05T06:03:40.249Z,4.13
2023-04-05T06:06:10.911Z,5.95
2023-04-05T06:08:38.374Z,7.80
2023-04-05T06:11:05.772Z,5.82
2023-04-05T06:13:33.788Z,5.70
2023-04-05T06:16:01.508Z,7.97
2023-04-05T06:18:28.695Z,5.53
2023-04-05T06:20:59.674Z,10.25
2023-04-05T06:23:27.134Z,9.18
2023-04-05T06:25:54.497Z,4.50
2023-04-05T06:28:21.705Z,7.15
2023-04-05T06:30:48.912Z,8.50
2023-04-05T06:33:16.416Z,6.57
2023-04-05T06:35:43.895Z,6.18
2023-04-05T06:38:11.206Z,10.40
2023-04-05T06:40:39.184Z,10.98
2023-04-05T06:43:06.832Z,5.90
2023-04-05T06:45:33.931Z,5.18
2023-04-05T06:48:01.690Z,5.43
2023-04-05T06:50:29.223Z,6.45
2023-04-05T06:52:57.073Z,7.13
2023-04-05T06:55:24.255Z,8.57
2023-04-05T06:57:51.438Z,6.43
2023-04-05T07:00:19.138Z,11.57
2023-04-05T07:02:46.362Z,7.82
2023-04-05T07:05:13.615Z,4.60
2023-04-05T07:07:42.871Z,3.65
2023-04-05T07:10:10.665Z,6.05
2023-04-05T07:12:39.100Z,6.97
2023-04-05T07:15:07.310Z,4.97
2023-04-05T07:17:34.971Z,10.43
2023-04-05T07:20:02.331Z,5.90
2023-04-05T07:22:29.510Z,8.40
2023-04-05T07:24:57.914Z,5.75
2023-04-05T07:27:25.369Z,6.32
2023-04-05T07:29:53.104Z,7.45
2023-04-05T07:32:20.912Z,6.15
2023-04-05T07:34:48.303Z,9.32
2023-04-05T07:37:15.840Z,5.72
2023-04-05T07:39:43.179Z,7.18
2023-04-05T07:42:10.912Z,8.38
2023-04-05T07:44:38.023Z,4.95
2023-04-05T07:47:05.986Z,5.78
2023-04-05T07:49:33.381Z,4.55
2023-04-05T07:52:01.297Z,4.90
2023-04-05T07:54:30.782Z,3.78
2023-04-05T07:56:58.408Z,10.65
2023-04-05T07:59:26.751Z,6.10
2023-04-05T08:01:57.095Z,3.60
2023-04-05T08:04:29.037Z,4.40
2023-04-05T08:06:56.130Z,7.53
2023-04-05T08:09:23.462Z,7.85
2023-04-05T08:11:50.546Z,7.85
2023-04-05T08:14:17.937Z,5.65
2023-04-05T08:16:45.468Z,4.30
2023-04-05T08:19:14.495Z,6.90
2023-04-05T08:21:43.170Z,7.63
2023-04-05T08:24:10.736Z,7.70
2023-04-05T08:26:38.469Z,7.07
2023-04-05T08:29:05.815Z,4.88
2023-04-05T08:31:33.918Z,7.53
2023-04-05T08:34:01.250Z,5.03
2023-04-05T08:36:28.541Z,9.32
2023-04-05T08:38:56.169Z,10.73
2023-04-05T08:41:23.739Z,6.53
2023-04-05T08:43:58.657Z,2.80
2023-04-05T08:46:26.124Z,3.83
2023-04-05T08:48:53.590Z,3.80
2023-04-05T08:51:21.328Z,6.82
2023-04-05T08:53:48.931Z,6.22
2023-04-05T08:56:22.048Z,3.58
2023-04-05T08:58:57.070Z,10.18
2023-04-05T09:01:24.754Z,4.85
2023-04-05T09:03:52.267Z,6.95
2023-04-05T09:06:20.160Z,7.50
2023-04-05T09:08:47.614Z,5.70
2023-04-05T09:11:15.736Z,11.45
2023-04-05T09:13:42.819Z,5.72
2023-04-05T09:16:09.931Z,6.63
2023-04-05T09:18:37.748Z,3.40
2023-04-05T09:21:08.069Z,4.78
2023-04-05T09:23:37.094Z,3.15
2023-04-05T09:26:24.052Z,5.63
2023-04-05T09:28:55.850Z,3.40
2023-04-05T09:31:31.008Z,5.43
2023-04-05T09:34:01.075Z,10.57
2023-04-05T09:36:28.505Z,6.53
2023-04-05T09:39:09.101Z,5.32
2023-04-05T09:41:36.773Z,6.45
2023-04-05T09:44:04.376Z,5.53
2023-04-05T09:46:34.048Z,4.35
2023-04-05T09:49:01.907Z,4.30
2023-04-05T09:51:36.403Z,8.65
2023-04-05T09:54:09.497Z,7.35
2023-04-05T09:56:38.389Z,4.40
2023-04-05T09:59:10.440Z,7.68
2023-04-05T10:01:51.321Z,9.80
2023-04-05T10:04:22.811Z,6.88
2023-04-05T10:06:50.195Z,7.78
2023-04-05T10:09:19.306Z,6.43
2023-04-05T10:11:46.385Z,6.28
2023-04-05T10:14:14.248Z,15.05
2023-04-05T10:17:03.803Z,6.18
2023-04-05T10:19:55.198Z,6.43
2023-04-05T10:22:49.525Z,6.13
2023-04-05T10:25:53.960Z,9.15
2023-04-05T10:28:35.868Z,10.13
2023-04-05T10:31:37.815Z,7.18
2023-04-05T10:34:10.677Z,10.27
2023-04-05T10:36:57.052Z,13.98
2023-04-05T10:39:55.105Z,6.40
2023-04-05T10:42:27.550Z,5.82
2023-04-05T10:45:02.017Z,8.90
2023-04-05T10:47:31.440Z,10.80
2023-04-05T10:50:00.253Z,6.10
2023-04-05T10:52:27.485Z,6.68
2023-04-05T10:54:56.550Z,14.95
2023-04-05T10:57:23.965Z,9.75
2023-04-05T10:59:51.254Z,9.80
2023-04-05T11:02:18.689Z,6.15
2023-04-05T11:04:46.160Z,8.57
2023-04-05T11:07:15.811Z,6.97
2023-04-05T11:09:55.712Z,7.95
2023-04-05T11:12:47.398Z,5.28
2023-04-05T11:15:30.333Z,12.52
2023-04-05T11:18:11.363Z,5.88
2023-04-05T11:20:53.089Z,7.20
2023-04-05T11:23:21.749Z,6.05
2023-04-05T11:25:59.511Z,11.15
2023-04-05T11:28:39.433Z,5.18
2023-04-05T11:31:16.730Z,9.18
2023-04-05T11:33:56.390Z,8.32
2023-04-05T11:36:37.894Z,7.22
2023-04-05T11:39:23.175Z,3.60
2023-04-05T11:42:01.700Z,4.07
2023-04-05T11:44:49.150Z,6.20
2023-04-05T11:47:22.861Z,4.43
2023-04-05T11:49:51.025Z,7.53
2023-04-05T11:52:20.132Z,3.78
2023-04-05T11:54:48.512Z,23.30
2023-04-05T11:57:23.224Z,5.43
2023-04-05T11:59:54.309Z,3.17
2023-04-05T12:02:21.860Z,5.85
2023-04-05T12:04:57.100Z,6.35
2023-04-05T12:07:27.701Z,6.32
2023-04-05T12:10:15.747Z,6.93
2023-04-05T12:12:44.242Z,8.23
2023-04-05T12:15:14.097Z,4.50
2023-04-05T12:17:46.316Z,7.35
2023-04-05T12:20:14.557Z,6.72
2023-04-05T12:22:43.345Z,8.80
2023-04-05T12:25:11.014Z,12.13
2023-04-05T12:27:38.728Z,15.40
2023-04-05T12:30:11.171Z,12.23
2023-04-05T12:32:42.475Z,17.67
2023-04-05T12:35:17.284Z,18.10
2023-04-05T12:37:45.437Z,9.32
2023-04-05T12:40:12.936Z,28.25
2023-04-05T12:42:40.980Z,14.32
2023-04-05T12:45:12.890Z,10.05
2023-04-05T12:47:56.719Z,17.90
2023-04-05T12:50:28.310Z,15.10
2023-04-05T12:53:00.381Z,13.20
2023-04-05T12:55:31.941Z,6.22
2023-04-05T12:58:00.649Z,11.98
2023-04-05T13:00:29.107Z,9.48
2023-04-05T13:02:57.962Z,19.92
2023-04-05T13:05:29.387Z,16.73
2023-04-05T13:07:56.799Z,28.08
2023-04-05T13:10:24.926Z,18.83
2023-04-05T13:12:52.006Z,24.70
2023-04-05T13:15:19.502Z,19.45
2023-04-05T13:17:49.415Z,27.90
2023-04-05T13:20:17.584Z,26.85
2023-04-05T13:22:45.819Z,23.17
2023-04-05T13:25:13.947Z,31.90
2023-04-05T13:27:40.984Z,34.83
2023-04-05T13:30:09.094Z,33.22
2023-04-05T13:32:36.958Z,51.45
2023-04-05T13:35:05.873Z,53.63
2023-04-05T13:37:33.414Z,68.05
2023-04-05T13:40:01.032Z,73.20
2023-04-05T13:42:28.623Z,40.22
2023-04-05T13:44:55.935Z,54.03
2023-04-05T13:47:23.263Z,54.67
2023-04-05T13:49:51.073Z,72.90
2023-04-05T13:52:18.401Z,75.32
2023-04-05T13:54:45.592Z,98.10
2023-04-05T13:57:14.068Z,139.68
2023-04-05T13:59:41.611Z,116.38
2023-04-05T14:02:08.994Z,101.30
2023-04-05T14:04:36.737Z,61.35
2023-04-05T14:07:03.973Z,99.05
2023-04-05T14:09:32.262Z,75.65
2023-04-05T14:12:01.466Z,87.55
2023-04-05T14:14:29.292Z,64.22
2023-04-05T14:16:56.516Z,81.20
2023-04-05T14:19:23.798Z,49.92
2023-04-05T14:21:51.375Z,75.57
2023-04-05T14:24:18.888Z,186.13
2023-04-05T14:26:50.095Z,176.25
2023-04-05T14:29:17.454Z,187.48
2023-04-05T14:31:45.559Z,142.13
2023-04-05T14:34:13.092Z,126.82
2023-04-05T14:36:40.672Z,122.38
2023-04-05T14:39:07.997Z,116.07
2023-04-05T14:41:35.354Z,90.30
2023-04-05T14:44:03.130Z,101.88
2023-04-05T14:46:30.881Z,100.03
2023-04-05T14:48:58.233Z,104.18
2023-04-05T14:51:26.550Z,119.03
2023-04-05T14:53:54.272Z,101.95
2023-04-05T14:56:21.844Z,97.20
2023-04-05T14:58:49.234Z,88.78
2023-04-05T15:01:16.827Z,77.95
2023-04-05T15:03:44.231Z,89.55
2023-04-05T15:06:11.883Z,80.78
2023-04-05T15:08:39.005Z,64.32
2023-04-05T15:11:06.950Z,67.63
2023-04-05T15:13:34.160Z,75.22
2023-04-05T15:16:01.360Z,77.93
2023-04-05T15:18:28.526Z,74.50
2023-04-05T15:20:55.778Z,79.75
2023-04-05T15:23:22.960Z,110.60
2023-04-05T15:25:50.593Z,99.15
2023-04-05T15:28:18.029Z,99.80
2023-04-05T15:30:45.630Z,104.60
2023-04-05T15:33:13.445Z,99.65
2023-04-05T15:35:41.140Z,117.28
2023-04-05T15:38:08.582Z,112.20
2023-04-05T15:40:36.079Z,86.30
2023-04-05T15:43:03.428Z,74.72
2023-04-05T15:45:31.498Z,107.03
2023-04-05T15:47:58.828Z,80.63
2023-04-05T15:50:26.804Z,125.75
2023-04-05T15:52:53.959Z,122.88
2023-04-05T15:55:21.541Z,111.43
2023-04-05T15:57:53.398Z,149.02
2023-04-05T16:00:22.444Z,188.85
2023-04-05T16:02:52.797Z,187.60
2023-04-05T16:05:21.577Z,194.18
2023-04-05T16:07:49.205Z,192.48
2023-04-05T16:10:16.773Z,172.63
2023-04-05T16:12:44.093Z,167.60
2023-04-05T16:15:11.748Z,152.88
2023-04-05T16:17:39.219Z,161.63
2023-04-05T16:20:07.199Z,165.27
2023-04-05T16:22:34.625Z,137.20
2023-04-05T16:25:01.853Z,139.50
2023-04-05T16:27:29.028Z,123.50
2023-04-05T16:29:56.854Z,130.43
2023-04-05T16:32:24.453Z,134.82
2023-04-05T16:34:51.518Z,118.25
2023-04-05T16:37:18.945Z,104.32
2023-04-05T16:39:46.157Z,103.18
2023-04-05T16:42:13.354Z,110.72
2023-04-05T16:44:40.823Z,105.05
2023-04-05T16:47:07.981Z,103.30
2023-04-05T16:49:35.474Z,108.47
2023-04-05T16:52:03.148Z,114.20
2023-04-05T16:54:31.208Z,122.10
2023-04-05T16:56:58.695Z,112.88
2023-04-05T16:59:26.098Z,128.05
2023-04-05T17:01:53.474Z,114.90
2023-04-05T17:04:21.287Z,111.40
2023-04-05T17:06:49.228Z,124.03
2023-04-05T17:09:16.608Z,116.35
2023-04-05T17:11:43.973Z,120.28
2023-04-05T17:14:11.435Z,114.47
2023-04-05T17:16:39.471Z,112.68
2023-04-05T17:19:07.078Z,98.20
2023-04-05T17:21:35.590Z,96.88
2023-04-05T17:24:02.971Z,67.57
2023-04-05T17:26:30.071Z,71.20
2023-04-05T17:28:57.273Z,96.68
2023-04-05T17:31:25.261Z,85.70
2023-04-05T17:33:52.641Z,76.03
2023-04-05T17:36:20.171Z,82.38
2023-04-05T17:38:47.652Z,76.85
2023-04-05T17:41:15.240Z,90.38
2023-04-05T17:43:42.591Z,87.53
2023-04-05T17:46:13.529Z,85.57
2023-04-05T17:48:41.593Z,87.30
2023-04-05T17:51:08.934Z,82.47
2023-04-05T17:53:36.312Z,95.63
2023-04-05T17:56:04.227Z,187.88
2023-04-05T17:58:32.568Z,219.85
2023-04-05T18:01:00.024Z,222.57
2023-04-05T18:03:27.908Z,326.55
2023-04-05T18:05:55.544Z,317.50
2023-04-05T18:08:23.586Z,301.15
2023-04-05T18:10:56.436Z,216.07
2023-04-05T18:13:24.468Z,235.52
2023-04-05T18:15:55.282Z,235.32
2023-04-05T18:18:22.683Z,203.23
2023-04-05T18:20:53.645Z,230.02
2023-04-05T18:23:22.336Z,214.07
2023-04-05T18:25:49.479Z,208.05
2023-04-05T18:28:22.755Z,219.07
2023-04-05T18:30:50.825Z,252.32
2023-04-05T18:33:18.498Z,260.17
2023-04-05T18:35:50.114Z,271.98
2023-04-05T18:38:18.027Z,276.75
2023-04-05T18:40:46.029Z,286.08
2023-04-05T18:43:14.046Z,326.10
2023-04-05T18:45:41.608Z,344.35
2023-04-05T18:48:08.755Z,325.70
2023-04-05T18:50:36.484Z,265.42
2023-04-05T18:53:06.497Z,335.52
2023-04-05T18:55:33.831Z,273.17
2023-04-05T18:58:02.370Z,365.92
2023-04-05T19:00:29.687Z,344.55
2023-04-05T19:02:57.182Z,320.23
2023-04-05T19:05:24.946Z,257.42
2023-04-05T19:07:52.357Z,259.38
2023-04-05T19:10:19.916Z,267.10
2023-04-05T19:12:47.116Z,282.02
2023-04-05T19:15:14.890Z,287.98
2023-04-05T19:17:42.315Z,296.73
2023-04-05T19:20:10.004Z,314.98
2023-04-05T19:22:37.677Z,292.02
2023-04-05T19:25:05.166Z,292.13
2023-04-05T19:27:34.292Z,294.75
2023-04-05T19:30:03.490Z,308.80
2023-04-05T19:32:30.969Z,302.33
2023-04-05T19:34:59.348Z,292.67
2023-04-05T19:37:26.725Z,316.83
2023-04-05T19:39:54.498Z,423.17
2023-04-05T19:42:21.937Z,381.00
2023-04-05T19:44:57.647Z,352.85
2023-04-05T19:47:25.730Z,336.48
2023-04-05T19:49:55.696Z,358.55
2023-04-05T19:52:36.376Z,403.70
2023-04-05T19:55:26.844Z,404.67
2023-04-05T19:57:54.513Z,423.85
2023-04-05T20:00:34.090Z,404.88
2023-04-05T20:03:01.559Z,378.88
2023-04-05T20:05:47.071Z,400.83
2023-04-05T20:08:15.275Z,389.15
2023-04-05T20:10:47.593Z,382.42
2023-04-05T20:13:21.005Z,396.98
2023-04-05T20:15:52.022Z,390.88
2023-04-05T20:18:26.328Z,357.10
2023-04-05T20:20:54.068Z,344.67
2023-04-05T20:23:22.174Z,323.40
2023-04-05T20:25:50.061Z,289.52
2023-04-05T20:28:40.195Z,285.90
2023-04-05T20:31:18.047Z,244.48
2023-04-05T20:33:45.742Z,228.20
2023-04-05T20:36:13.696Z,289.30
2023-04-05T20:38:42.496Z,257.63
2023-04-05T20:41:11.538Z,316.85
2023-04-05T20:43:38.989Z,212.27
2023-04-05T20:46:06.621Z,213.20
2023-04-05T20:48:34.639Z,196.07
2023-04-05T20:51:03.153Z,181.85
2023-04-05T20:53:33.180Z,196.85
2023-04-05T20:56:00.433Z,214.77
2023-04-05T20:58:28.160Z,195.63
2023-04-05T21:00:55.759Z,256.45
2023-04-05T21:03:23.000Z,281.80
2023-04-05T21:05:50.355Z,274.52
2023-04-05T21:08:17.984Z,266.65
2023-04-05T21:10:45.605Z,287.20
2023-04-05T21:13:13.413Z,292.95
2023-04-05T21:15:41.194Z,286.35
2023-04-05T21:18:09.984Z,322.95
2023-04-05T21:20:37.254Z,287.08
2023-04-05T21:23:04.659Z,291.83
2023-04-05T21:25:32.082Z,284.13
2023-04-05T21:28:02.452Z,276.02
2023-04-05T21:30:29.969Z,298.05
2023-04-05T21:32:57.422Z,276.52
2023-04-05T21:35:25.209Z,268.33
2023-04-05T21:37:52.863Z,274.00
2023-04-05T21:40:20.461Z,292.88
2023-04-05T21:42:47.945Z,289.67
2023-04-05T21:45:15.420Z,275.92
2023-04-05T21:47:42.802Z,276.85
2023-04-05T21:50:10.757Z,257.67
2023-04-05T21:52:38.509Z,289.88
2023-04-05T21:55:06.308Z,269.98
2023-04-05T21:57:33.591Z,274.65
2023-04-05T22:00:01.312Z,272.67
2023-04-05T22:02:28.875Z,266.63
2023-04-05T22:04:56.269Z,265.63
2023-04-05T22:07:23.440Z,295.38
2023-04-05T22:09:51.413Z,258.05
2023-04-05T22:12:21.142Z,252.18
2023-04-05T22:14:48.458Z,255.55
2023-04-05T22:17:15.864Z,250.48
2023-04-05T22:19:43.767Z,247.75
2023-04-05T22:22:12.715Z,205.00
2023-04-05T22:24:40.076Z,230.73
2023-04-05T22:27:07.486Z,203.57
2023-04-05T22:29:34.738Z,187.60
2023-04-05T22:32:02.330Z,173.77
2023-04-05T22:34:29.777Z,176.85
2023-04-05T22:36:56.829Z,187.43
2023-04-05T22:39:24.267Z,193.30
2023-04-05T22:41:51.626Z,190.95
2023-04-05T22:44:19.851Z,181.07
2023-04-05T22:46:47.480Z,176.10
2023-04-05T22:49:14.624Z,184.05
2023-04-05T22:51:42.033Z,169.75
2023-04-05T22:54:09.530Z,150.02
2023-04-05T22:56:36.903Z,135.52
2023-04-05T22:59:04.169Z,132.80
2023-04-05T23:01:31.428Z,110.82
2023-04-05T23:03:59.029Z,101.65
2023-04-05T23:06:26.201Z,102.60
2023-04-05T23:08:53.599Z,93.32
2023-04-05T23:11:21.299Z,92.57
2023-04-05T23:13:49.500Z,81.78
2023-04-05T23:16:17.160Z,70.50
2023-04-05T23:18:44.368Z,81.32
2023-04-05T23:21:12.094Z,65.72
2023-04-05T23:23:39.599Z,60.17
2023-04-05T23:26:07.134Z,58.67
2023-04-05T23:28:34.595Z,59.28
2023-04-05T23:31:01.746Z,62.35
2023-04-05T23:33:29.210Z,56.92
2023-04-05T23:35:56.659Z,58.33
2023-04-05T23:38:24.172Z,66.65
2023-04-05T23:40:52.056Z,69.78
2023-04-05T23:43:19.263Z,64.55
2023-04-05T23:45:46.797Z,67.57
2023-04-05T23:48:13.942Z,62.80
2023-04-05T23:50:41.429Z,58.55
2023-04-05T23:53:08.597Z,59.05
2023-04-05T23:55:40.041Z,55.35
2023-04-05T23:58:08.360Z,59.85
